Time;durP1;ratioP1;P1;durP2;ratioP2;P2;SDS_P1;SDS_P2;PMS_P1;PMS_P2;Temp;Humidity;BMP_temperature;BMP_pressure;BME280_temperature;BME280_humidity;BME280_pressure;Samples;Min_cycle;Max_cycle;Signal;HPM_P1;HPM_P2
2021/10/31 00:01:33;;;;;;;13.07;11.83;;;11.60;99.90;;;;;;5071777;28;20201;-67
2021/10/31 00:03:59;;;;;;;13.97;12.57;;;11.50;99.90;;;;;;5054430;28;20202;-67
2021/10/31 00:06:25;;;;;;;12.77;11.57;;;11.50;99.90;;;;;;5051500;28;20699;-67
2021/10/31 00:08:50;;;;;;;12.67;11.40;;;11.40;99.90;;;;;;5062681;28;20629;-67
2021/10/31 00:11:17;;;;;;;10.70;9.80;;;11.40;99.90;;;;;;5052359;28;20174;-67
2021/10/31 00:13:43;;;;;;;10.57;9.73;;;11.40;99.90;;;;;;5051560;28;20217;-67
2021/10/31 00:16:09;;;;;;;10.10;9.30;;;11.40;99.90;;;;;;5063919;28;20173;-67
2021/10/31 00:18:34;;;;;;;12.23;10.97;;;11.40;99.90;;;;;;5070094;28;20193;-67
2021/10/31 00:21:00;;;;;;;12.07;11.17;;;11.40;99.90;;;;;;5060254;28;20530;-68
2021/10/31 00:23:26;;;;;;;11.40;10.63;;;11.40;99.90;;;;;;5051486;28;20182;-68
2021/10/31 00:25:52;;;;;;;11.43;10.53;;;11.40;99.90;;;;;;5059992;28;20178;-68
2021/10/31 00:28:18;;;;;;;10.23;9.63;;;11.40;99.90;;;;;;5070884;28;20248;-68
2021/10/31 00:30:43;;;;;;;10.47;9.73;;;11.30;99.90;;;;;;5063338;28;20174;-68
2021/10/31 00:33:09;;;;;;;10.30;9.33;;;11.30;99.90;;;;;;5051404;28;20175;-66
2021/10/31 00:35:36;;;;;;;9.73;9.10;;;11.30;99.90;;;;;;5056662;28;20197;-66
2021/10/31 00:38:02;;;;;;;8.53;7.93;;;11.30;99.90;;;;;;5071354;28;20197;-67
2021/10/31 00:40:28;;;;;;;8.33;7.83;;;11.30;99.90;;;;;;5066847;28;20167;-68
2021/10/31 00:42:53;;;;;;;8.27;7.67;;;11.30;99.90;;;;;;5051537;28;20175;-67
2021/10/31 00:45:19;;;;;;;8.60;8.00;;;11.30;99.90;;;;;;5052327;28;20162;-68
2021/10/31 00:47:45;;;;;;;9.03;8.23;;;11.20;99.90;;;;;;5051053;28;20211;-67
2021/10/31 00:50:11;;;;;;;8.53;7.93;;;11.20;99.90;;;;;;5053359;28;20210;-67
2021/10/31 00:52:37;;;;;;;7.97;7.37;;;11.20;99.90;;;;;;5069677;28;20177;-68
2021/10/31 00:55:04;;;;;;;8.50;7.90;;;11.20;99.90;;;;;;5069832;28;20170;-67
2021/10/31 00:57:31;;;;;;;8.13;7.63;;;11.20;99.90;;;;;;5051032;28;20194;-66
2021/10/31 00:59:58;;;;;;;8.67;7.97;;;11.10;99.90;;;;;;5049646;28;20261;-68
2021/10/31 01:02:25;;;;;;;8.87;8.27;;;11.10;99.90;;;;;;5066773;28;20589;-68
2021/10/31 01:04:56;;;;;;;8.03;7.43;;;11.00;99.90;;;;;;5071250;28;20170;-68
2021/10/31 01:07:33;;;;;;;8.60;7.90;;;11.00;99.90;;;;;;5052486;28;20209;-67
2021/10/31 01:10:09;;;;;;;8.30;7.47;;;10.90;99.90;;;;;;5054842;28;20209;-67
2021/10/31 01:12:40;;;;;;;8.63;7.97;;;10.90;99.90;;;;;;5034673;28;20262;-67
2021/10/31 01:15:21;;;;;;;8.63;8.03;;;10.80;99.90;;;;;;5033855;28;20171;-68
2021/10/31 01:18:10;;;;;;;8.63;8.03;;;10.80;99.90;;;;;;5033409;28;20198;-67
2021/10/31 01:20:36;;;;;;;9.27;8.67;;;10.70;99.90;;;;;;5039938;28;20249;-68
2021/10/31 01:23:20;;;;;;;9.10;8.50;;;10.70;99.90;;;;;;5073488;28;20265;-68
2021/10/31 01:26:14;;;;;;;7.70;7.07;;;10.70;99.90;;;;;;5069842;28;20171;-68
2021/10/31 01:28:53;;;;;;;8.57;7.87;;;10.70;99.90;;;;;;5054387;28;20195;-67
2021/10/31 01:31:52;;;;;;;8.47;7.87;;;10.70;99.90;;;;;;5060178;28;20174;-68
2021/10/31 01:34:45;;;;;;;9.80;9.10;;;10.80;99.90;;;;;;5074422;28;20192;-67
2021/10/31 01:37:41;;;;;;;9.57;8.80;;;10.70;99.90;;;;;;5071453;28;20220;-67
2021/10/31 01:40:16;;;;;;;8.87;8.27;;;10.70;99.90;;;;;;5060609;28;20214;-67
2021/10/31 01:42:47;;;;;;;8.53;7.83;;;10.60;99.90;;;;;;5054176;28;20587;-67
2021/10/31 01:45:31;;;;;;;8.73;8.23;;;10.60;99.90;;;;;;5067678;28;20694;-68
2021/10/31 01:48:14;;;;;;;9.03;8.43;;;10.60;99.90;;;;;;5072802;28;20627;-67
2021/10/31 01:50:45;;;;;;;8.57;7.97;;;10.50;99.90;;;;;;5056966;28;20194;-67
2021/10/31 01:53:19;;;;;;;8.20;7.50;;;10.50;99.90;;;;;;5053023;28;20263;-68
2021/10/31 01:55:57;;;;;;;8.87;8.17;;;10.40;99.90;;;;;;5070458;28;20282;-68
2021/10/31 01:58:24;;;;;;;8.50;7.80;;;10.30;99.90;;;;;;5074052;28;20574;-68
2021/10/31 02:00:53;;;;;;;9.27;8.50;;;10.20;99.90;;;;;;5055583;28;20186;-68
2021/10/31 02:03:21;;;;;;;8.00;7.47;;;10.20;99.90;;;;;;5052739;28;20171;-67
2021/10/31 02:05:49;;;;;;;9.03;8.33;;;10.20;99.90;;;;;;5069160;28;20192;-68
2021/10/31 02:08:17;;;;;;;8.97;8.20;;;10.20;99.90;;;;;;5061117;28;20229;-67
2021/10/31 02:10:46;;;;;;;9.33;8.63;;;10.30;99.90;;;;;;5053415;28;20185;-68
2021/10/31 02:13:14;;;;;;;9.47;8.77;;;10.20;99.90;;;;;;5064857;28;20209;-66
2021/10/31 02:15:43;;;;;;;9.37;8.60;;;10.20;99.90;;;;;;5073720;28;20171;-67
2021/10/31 02:18:11;;;;;;;9.03;8.43;;;10.20;99.90;;;;;;5063357;28;20194;-67
2021/10/31 02:20:40;;;;;;;8.80;8.20;;;10.20;99.90;;;;;;5052280;28;20707;-67
2021/10/31 02:23:06;;;;;;;8.43;7.87;;;10.10;99.90;;;;;;5061252;28;20177;-67
2021/10/31 02:25:33;;;;;;;8.57;7.97;;;10.10;99.90;;;;;;5073497;28;20639;-68
2021/10/31 02:27:59;;;;;;;8.53;7.83;;;10.10;99.90;;;;;;5065899;28;20191;-66
2021/10/31 02:30:25;;;;;;;8.80;8.10;;;10.10;99.90;;;;;;5053118;28;20175;-68
2021/10/31 02:32:51;;;;;;;8.40;7.73;;;10.00;99.90;;;;;;5053183;28;20267;-67
2021/10/31 02:35:18;;;;;;;9.07;8.47;;;10.00;99.90;;;;;;5055203;28;20566;-67
2021/10/31 02:37:44;;;;;;;8.23;7.60;;;10.00;99.90;;;;;;5073485;28;20554;-68
2021/10/31 02:40:12;;;;;;;9.07;8.40;;;9.90;99.90;;;;;;5072734;28;20170;-68
2021/10/31 02:42:39;;;;;;;9.07;8.37;;;9.90;99.90;;;;;;5053104;28;20182;-68
2021/10/31 02:45:06;;;;;;;9.33;8.53;;;9.90;99.90;;;;;;5062893;28;20190;-67
2021/10/31 02:47:36;;;;;;;8.67;7.90;;;9.90;99.90;;;;;;5071656;28;20218;-67
2021/10/31 02:50:03;;;;;;;9.33;8.73;;;9.90;99.90;;;;;;5062632;28;20211;-67
2021/10/31 02:52:53;;;;;;;8.70;8.20;;;9.80;99.90;;;;;;5052941;28;20171;-67
2021/10/31 02:55:23;;;;;;;9.83;8.83;;;9.80;99.90;;;;;;5063398;28;20188;-67
2021/10/31 02:57:56;;;;;;;8.80;8.20;;;9.80;99.90;;;;;;5064202;28;20206;-66
2021/10/31 03:00:25;;;;;;;8.47;7.87;;;9.80;99.90;;;;;;5051889;28;20171;-68
2021/10/31 03:02:51;;;;;;;8.67;8.07;;;9.80;99.90;;;;;;5060404;28;20178;-68
2021/10/31 03:05:17;;;;;;;9.13;8.27;;;9.80;99.90;;;;;;5073041;28;20205;-68
2021/10/31 03:07:43;;;;;;;9.50;8.87;;;9.70;99.90;;;;;;5066110;28;20679;-68
2021/10/31 03:10:09;;;;;;;9.00;8.40;;;9.70;99.90;;;;;;5052262;28;20206;-67
2021/10/31 03:12:35;;;;;;;8.87;8.20;;;9.70;99.90;;;;;;5056623;28;20673;-67
2021/10/31 03:15:00;;;;;;;8.50;7.80;;;9.60;99.90;;;;;;5054105;28;20203;-67
2021/10/31 03:17:26;;;;;;;8.40;7.83;;;9.60;99.90;;;;;;5055038;28;20237;-67
2021/10/31 03:19:52;;;;;;;8.80;8.30;;;9.60;99.90;;;;;;5070873;28;20228;-66
2021/10/31 03:22:17;;;;;;;9.60;8.83;;;9.60;99.90;;;;;;5071613;28;20178;-68
2021/10/31 03:24:43;;;;;;;10.47;9.77;;;9.60;99.90;;;;;;5052470;28;20269;-68
2021/10/31 03:27:09;;;;;;;10.53;9.73;;;9.60;99.90;;;;;;5052472;28;20225;-67
2021/10/31 03:29:34;;;;;;;10.50;9.77;;;9.60;99.90;;;;;;5064059;28;20267;-67
2021/10/31 03:32:00;;;;;;;11.50;10.70;;;9.60;99.90;;;;;;5051073;28;20179;-67
2021/10/31 03:34:26;;;;;;;12.00;11.30;;;9.60;99.90;;;;;;5052355;28;20624;-67
2021/10/31 03:36:51;;;;;;;12.63;11.73;;;9.60;99.90;;;;;;5066524;28;20618;-68
2021/10/31 03:39:18;;;;;;;11.53;10.63;;;9.60;99.90;;;;;;5071779;28;20178;-68
2021/10/31 03:41:45;;;;;;;10.03;9.40;;;9.70;99.90;;;;;;5057801;28;20655;-68
2021/10/31 03:44:14;;;;;;;9.17;8.63;;;9.70;99.90;;;;;;5052407;28;20174;-68
2021/10/31 03:46:40;;;;;;;8.80;8.07;;;9.60;99.90;;;;;;5077335;22;20229;-66
2021/10/31 03:49:06;;;;;;;9.33;8.33;;;9.60;99.90;;;;;;5052279;28;20222;-66
2021/10/31 03:51:32;;;;;;;9.17;8.50;;;9.50;99.90;;;;;;5051917;28;20541;-66
2021/10/31 03:53:57;;;;;;;8.13;7.63;;;9.50;99.90;;;;;;5052163;28;20167;-66
2021/10/31 03:56:23;;;;;;;8.77;8.17;;;9.50;99.90;;;;;;5052207;28;20370;-66
2021/10/31 03:58:48;;;;;;;7.90;7.33;;;9.50;99.90;;;;;;5052333;28;20167;-66
2021/10/31 04:01:15;;;;;;;9.20;8.50;;;9.50;99.90;;;;;;5051761;28;20174;-66
2021/10/31 04:03:40;;;;;;;8.50;7.80;;;9.50;99.90;;;;;;5050841;28;20183;-66
2021/10/31 04:06:07;;;;;;;11.13;8.20;;;9.50;99.90;;;;;;5052152;28;20175;-66
2021/10/31 04:08:33;;;;;;;9.53;8.73;;;9.50;99.90;;;;;;5051715;28;20285;-66
2021/10/31 04:10:58;;;;;;;9.17;8.47;;;9.50;99.90;;;;;;5051454;28;20602;-66
2021/10/31 04:13:24;;;;;;;8.63;8.03;;;9.50;99.90;;;;;;5052039;28;20229;-65
2021/10/31 04:15:50;;;;;;;8.93;8.23;;;9.60;99.90;;;;;;5051506;28;20171;-65
2021/10/31 04:18:16;;;;;;;8.80;8.00;;;9.60;99.90;;;;;;5052064;28;20211;-66
2021/10/31 04:20:41;;;;;;;9.57;8.87;;;9.60;99.90;;;;;;5051222;28;20174;-66
2021/10/31 04:23:07;;;;;;;10.00;9.10;;;9.60;99.90;;;;;;5052021;28;20249;-66
2021/10/31 04:25:33;;;;;;;10.00;9.00;;;9.60;99.90;;;;;;5051549;28;20186;-66
2021/10/31 04:27:58;;;;;;;9.40;8.70;;;9.60;99.90;;;;;;5053326;28;20198;-66
2021/10/31 04:30:24;;;;;;;9.40;8.60;;;9.70;99.90;;;;;;5051117;28;20206;-65
2021/10/31 04:32:49;;;;;;;9.67;9.03;;;9.70;99.90;;;;;;5051527;28;20171;-66
2021/10/31 04:35:15;;;;;;;9.07;8.30;;;9.70;99.90;;;;;;5051895;28;20197;-66
2021/10/31 04:37:43;;;;;;;9.37;8.57;;;9.70;99.90;;;;;;5051735;28;20187;-66
2021/10/31 04:40:12;;;;;;;9.13;8.30;;;9.70;99.90;;;;;;5051300;28;20175;-66
2021/10/31 04:42:39;;;;;;;9.73;8.83;;;9.60;99.90;;;;;;5051435;28;20232;-64
2021/10/31 04:45:05;;;;;;;10.80;9.83;;;9.60;99.90;;;;;;5051482;28;20171;-66
2021/10/31 04:47:31;;;;;;;10.13;9.33;;;9.60;99.90;;;;;;5051385;28;20214;-66
2021/10/31 04:49:57;;;;;;;10.80;9.90;;;9.50;99.90;;;;;;5051122;28;20202;-66
2021/10/31 04:52:23;;;;;;;10.67;9.77;;;9.50;99.90;;;;;;5051159;28;20175;-66
2021/10/31 04:54:48;;;;;;;9.70;9.00;;;9.50;99.90;;;;;;5051523;28;20178;-65
2021/10/31 04:57:14;;;;;;;10.30;9.40;;;9.50;99.90;;;;;;5051263;28;20260;-67
2021/10/31 04:59:39;;;;;;;9.83;9.00;;;9.40;99.90;;;;;;5051026;28;20170;-65
2021/10/31 05:02:05;;;;;;;10.40;9.60;;;9.40;99.90;;;;;;5051191;28;20202;-67
2021/10/31 05:04:31;;;;;;;10.20;9.47;;;9.40;99.90;;;;;;5051470;28;20175;-65
2021/10/31 05:06:56;;;;;;;10.37;9.47;;;9.40;99.90;;;;;;5050267;28;20649;-65
2021/10/31 05:09:22;;;;;;;10.53;9.53;;;9.40;99.90;;;;;;5051167;28;20277;-66
2021/10/31 05:11:47;;;;;;;10.53;9.63;;;9.40;99.90;;;;;;5051839;28;20531;-65
2021/10/31 05:14:13;;;;;;;10.83;9.87;;;9.40;99.90;;;;;;5051720;28;20179;-66
2021/10/31 05:16:39;;;;;;;10.43;9.43;;;9.30;99.90;;;;;;5049648;28;20230;-65
2021/10/31 05:19:05;;;;;;;10.83;9.83;;;9.40;99.90;;;;;;5051617;28;20179;-66
2021/10/31 05:21:32;;;;;;;10.47;9.57;;;9.40;99.90;;;;;;5051358;28;20178;-65
2021/10/31 05:23:57;;;;;;;10.97;10.07;;;9.40;99.90;;;;;;5050601;28;20178;-66
2021/10/31 05:26:25;;;;;;;10.27;9.37;;;9.40;99.90;;;;;;5051687;28;20182;-65
2021/10/31 05:28:50;;;;;;;11.97;11.00;;;9.40;99.90;;;;;;5052172;28;20198;-66
2021/10/31 05:31:16;;;;;;;18.13;16.90;;;9.40;99.90;;;;;;5051968;28;20179;-65
2021/10/31 05:33:42;;;;;;;17.57;16.47;;;9.30;99.90;;;;;;5052229;28;20191;-66
2021/10/31 05:36:08;;;;;;;11.47;10.57;;;9.30;99.90;;;;;;5052031;28;20167;-66
2021/10/31 05:38:33;;;;;;;10.60;9.63;;;9.40;99.90;;;;;;5051762;28;20226;-65
2021/10/31 05:40:59;;;;;;;11.33;10.23;;;9.40;99.90;;;;;;5050978;28;20628;-67
2021/10/31 05:43:25;;;;;;;14.00;12.60;;;9.50;99.90;;;;;;5051909;28;20173;-69
2021/10/31 05:45:51;;;;;;;12.47;10.60;;;9.50;99.90;;;;;;5051358;28;20631;-67
2021/10/31 05:48:17;;;;;;;10.60;9.63;;;9.50;99.90;;;;;;5051352;28;20242;-66
2021/10/31 05:50:43;;;;;;;9.80;8.97;;;9.50;99.90;;;;;;5050868;28;20270;-66
2021/10/31 05:53:08;;;;;;;10.60;9.40;;;9.50;99.90;;;;;;5051779;28;20182;-66
2021/10/31 05:55:34;;;;;;;13.23;12.13;;;9.60;99.90;;;;;;5053466;28;20179;-66
2021/10/31 05:58:00;;;;;;;14.73;13.63;;;9.60;99.90;;;;;;5055203;28;20191;-66
2021/10/31 06:00:26;;;;;;;14.97;13.87;;;9.50;99.90;;;;;;5054460;28;20189;-64
2021/10/31 06:02:51;;;;;;;14.50;13.20;;;9.50;99.90;;;;;;5055182;28;20591;-66
2021/10/31 06:05:17;;;;;;;11.70;10.70;;;9.50;99.90;;;;;;5053701;28;20185;-66
2021/10/31 06:07:43;;;;;;;13.47;12.23;;;9.50;99.90;;;;;;5054662;28;20273;-65
2021/10/31 06:10:10;;;;;;;14.93;13.53;;;9.50;99.90;;;;;;5054351;28;20645;-66
2021/10/31 06:12:40;;;;;;;13.67;12.50;;;9.50;99.90;;;;;;5054847;28;20170;-69
2021/10/31 06:15:06;;;;;;;12.43;11.37;;;9.50;99.90;;;;;;5055114;28;20266;-69
2021/10/31 06:17:32;;;;;;;11.90;10.80;;;9.50;99.90;;;;;;5054801;28;20187;-66
2021/10/31 06:19:58;;;;;;;17.67;11.63;;;9.50;99.90;;;;;;5054388;28;20175;-66
2021/10/31 06:22:24;;;;;;;15.00;11.43;;;9.50;99.90;;;;;;5054226;28;20221;-65
2021/10/31 06:24:49;;;;;;;11.73;10.63;;;9.40;99.90;;;;;;5052819;28;20598;-66
2021/10/31 06:27:15;;;;;;;13.43;10.77;;;9.40;99.90;;;;;;5053755;28;20269;-65
2021/10/31 06:29:40;;;;;;;11.70;10.63;;;9.40;99.90;;;;;;5053261;28;20691;-65
2021/10/31 06:32:06;;;;;;;11.63;10.53;;;9.40;99.90;;;;;;5054100;28;20249;-66
2021/10/31 06:34:32;;;;;;;11.90;10.90;;;9.30;99.90;;;;;;5053543;28;20182;-66
2021/10/31 06:36:57;;;;;;;16.20;14.80;;;9.30;99.90;;;;;;5053271;28;20199;-65
2021/10/31 06:39:23;;;;;;;13.70;12.57;;;9.30;99.90;;;;;;5053762;28;20179;-66
2021/10/31 06:41:49;;;;;;;10.40;9.40;;;9.20;99.90;;;;;;5053347;28;20185;-65
2021/10/31 06:44:14;;;;;;;10.97;10.03;;;9.20;99.90;;;;;;5053990;28;20182;-69
2021/10/31 06:46:40;;;;;;;10.77;9.83;;;9.20;99.90;;;;;;5053329;28;20264;-69
2021/10/31 06:49:08;;;;;;;10.73;9.77;;;9.20;99.90;;;;;;5053168;28;20688;-65
2021/10/31 06:51:34;;;;;;;9.87;9.07;;;9.20;99.90;;;;;;5053489;28;20170;-66
2021/10/31 06:54:00;;;;;;;10.23;9.33;;;9.30;99.90;;;;;;5053293;28;20175;-66
2021/10/31 06:56:26;;;;;;;10.23;9.27;;;9.30;99.90;;;;;;5031831;28;20176;-64
2021/10/31 06:58:52;;;;;;;11.83;10.83;;;9.30;99.90;;;;;;5035735;28;20174;-65
2021/10/31 07:01:18;;;;;;;10.37;9.53;;;9.40;99.90;;;;;;5053460;28;20178;-64
2021/10/31 07:03:46;;;;;;;11.77;10.67;;;9.50;99.90;;;;;;5052710;28;20604;-64
2021/10/31 07:06:13;;;;;;;11.50;10.43;;;9.50;99.90;;;;;;5052777;28;20257;-66
2021/10/31 07:08:39;;;;;;;12.00;10.80;;;9.60;99.90;;;;;;5052213;28;20200;-66
2021/10/31 07:11:04;;;;;;;12.50;11.27;;;9.70;99.90;;;;;;5052052;28;20540;-66
2021/10/31 07:13:30;;;;;;;12.33;11.23;;;9.80;99.90;;;;;;5051281;28;20225;-65
2021/10/31 07:15:56;;;;;;;11.50;10.47;;;9.80;99.90;;;;;;5052573;28;20200;-66
2021/10/31 07:18:21;;;;;;;11.90;10.73;;;9.90;99.90;;;;;;5052615;28;20199;-66
2021/10/31 07:20:47;;;;;;;10.90;9.90;;;10.00;99.90;;;;;;5051860;28;20665;-69
2021/10/31 07:23:12;;;;;;;9.53;8.73;;;10.00;99.90;;;;;;5053025;28;20636;-68
2021/10/31 07:25:38;;;;;;;10.43;9.43;;;10.10;99.90;;;;;;5052196;28;20171;-65
2021/10/31 07:28:04;;;;;;;10.30;9.30;;;10.10;99.90;;;;;;5052669;28;20552;-66
2021/10/31 07:30:29;;;;;;;11.00;10.00;;;10.20;99.90;;;;;;5051753;28;20237;-68
2021/10/31 07:32:57;;;;;;;11.50;10.40;;;10.20;99.90;;;;;;5033598;28;20266;-69
2021/10/31 07:35:24;;;;;;;10.80;9.57;;;10.30;99.90;;;;;;5031479;28;20273;-68
2021/10/31 07:37:50;;;;;;;11.30;10.33;;;10.30;99.90;;;;;;5045927;28;20195;-69
2021/10/31 07:40:16;;;;;;;10.17;9.17;;;10.30;99.90;;;;;;5052217;28;20631;-68
2021/10/31 07:42:42;;;;;;;9.80;8.97;;;10.30;99.90;;;;;;5052151;28;20189;-66
2021/10/31 07:45:08;;;;;;;10.53;9.63;;;10.40;99.90;;;;;;5050971;28;20636;-65
2021/10/31 07:47:33;;;;;;;11.23;10.13;;;10.40;99.90;;;;;;5051752;28;20578;-66
2021/10/31 07:49:59;;;;;;;10.47;8.97;;;10.40;99.90;;;;;;5052122;28;20198;-66
2021/10/31 07:52:25;;;;;;;9.83;9.03;;;10.40;99.90;;;;;;5051966;28;20261;-67
2021/10/31 07:54:51;;;;;;;10.17;9.37;;;10.40;99.90;;;;;;5052225;28;20167;-67
2021/10/31 07:57:19;;;;;;;11.83;9.97;;;10.40;99.90;;;;;;5052097;28;20198;-67
2021/10/31 07:59:45;;;;;;;13.37;12.23;;;10.40;99.90;;;;;;5051483;28;20166;-66
2021/10/31 08:02:10;;;;;;;11.43;10.47;;;10.50;99.90;;;;;;5052047;28;20427;-68
2021/10/31 08:04:36;;;;;;;10.30;9.40;;;10.50;99.90;;;;;;5051741;28;20177;-67
2021/10/31 08:07:02;;;;;;;10.30;9.20;;;10.60;99.90;;;;;;5051931;28;20194;-67
2021/10/31 08:09:28;;;;;;;11.00;10.00;;;10.60;99.90;;;;;;5050399;28;20209;-67
2021/10/31 08:11:53;;;;;;;11.60;10.47;;;10.70;99.90;;;;;;5051494;28;20628;-67
2021/10/31 08:14:19;;;;;;;11.23;10.17;;;10.80;99.90;;;;;;5051707;28;20174;-67
2021/10/31 08:16:45;;;;;;;12.13;10.90;;;11.00;99.90;;;;;;5049601;28;20193;-67
2021/10/31 08:19:10;;;;;;;12.57;11.33;;;11.20;99.90;;;;;;5051073;28;20179;-67
2021/10/31 08:21:37;;;;;;;14.67;13.60;;;11.40;99.90;;;;;;5051543;28;20167;-67
2021/10/31 08:24:04;;;;;;;13.17;11.93;;;11.50;99.90;;;;;;5051393;28;20645;-68
2021/10/31 08:26:29;;;;;;;10.87;9.97;;;11.70;99.90;;;;;;5051133;28;20271;-67
2021/10/31 08:28:56;;;;;;;11.53;10.43;;;11.80;99.90;;;;;;5051425;28;20686;-67
2021/10/31 08:31:31;;;;;;;13.50;12.40;;;11.90;99.90;;;;;;5051060;28;20301;-67
2021/10/31 08:33:59;;;;;;;11.07;9.97;;;12.00;99.90;;;;;;5051579;28;20162;-68
2021/10/31 08:36:26;;;;;;;11.13;10.17;;;12.20;99.90;;;;;;5051357;28;20266;-68
2021/10/31 08:38:52;;;;;;;11.20;10.10;;;12.50;99.90;;;;;;5051061;28;20541;-66
2021/10/31 08:41:23;;;;;;;9.53;8.73;;;12.70;99.90;;;;;;5050962;28;20536;-66
2021/10/31 08:43:54;;;;;;;8.27;7.67;;;13.00;99.90;;;;;;5051258;28;20178;-67
2021/10/31 08:46:20;;;;;;;7.40;6.90;;;13.40;99.90;;;;;;5050881;28;20648;-67
2021/10/31 08:48:46;;;;;;;7.00;6.63;;;13.70;99.90;;;;;;5051029;28;20261;-67
2021/10/31 08:51:16;;;;;;;7.13;6.73;;;14.00;99.90;;;;;;5050858;28;20175;-67
2021/10/31 08:53:42;;;;;;;7.33;6.93;;;14.30;99.90;;;;;;5051114;28;20197;-68
2021/10/31 08:56:11;;;;;;;6.90;6.47;;;14.30;99.90;;;;;;5051008;28;20179;-67
2021/10/31 08:58:38;;;;;;;7.10;6.70;;;14.10;99.90;;;;;;5050763;28;20182;-67
2021/10/31 09:01:04;;;;;;;7.73;7.23;;;14.10;99.90;;;;;;5051179;28;20232;-67
2021/10/31 09:03:30;;;;;;;6.33;5.93;;;14.20;99.90;;;;;;5050964;28;20204;-67
2021/10/31 09:05:55;;;;;;;7.40;6.90;;;14.40;99.90;;;;;;5049852;28;20178;-67
2021/10/31 09:08:21;;;;;;;6.67;6.27;;;14.80;99.90;;;;;;5050742;28;20539;-67
2021/10/31 09:10:47;;;;;;;5.77;5.47;;;15.20;99.90;;;;;;5049494;28;20178;-68
2021/10/31 09:13:13;;;;;;;5.70;5.40;;;15.40;99.90;;;;;;5051241;28;20175;-67
2021/10/31 09:15:39;;;;;;;6.17;5.60;;;15.60;99.90;;;;;;5051887;28;20460;-68
2021/10/31 09:18:06;;;;;;;6.23;5.93;;;15.80;99.90;;;;;;5052657;28;20198;-66
2021/10/31 09:20:33;;;;;;;6.13;5.83;;;15.90;99.90;;;;;;5050549;28;20265;-67
2021/10/31 09:23:00;;;;;;;5.10;4.90;;;16.10;99.90;;;;;;5051241;28;20589;-67
2021/10/31 09:25:27;;;;;;;6.27;5.87;;;16.20;99.90;;;;;;5051013;28;20186;-67
2021/10/31 09:27:54;;;;;;;6.40;6.00;;;16.30;99.90;;;;;;5051227;28;20238;-68
2021/10/31 09:30:21;;;;;;;5.90;5.60;;;16.30;99.90;;;;;;5054327;28;20332;-67
2021/10/31 09:32:49;;;;;;;5.77;5.47;;;16.30;99.90;;;;;;5054684;28;20178;-68
2021/10/31 09:35:20;;;;;;;5.60;5.30;;;16.30;99.90;;;;;;5053843;28;20261;-68
2021/10/31 09:37:48;;;;;;;5.50;5.20;;;16.40;99.90;;;;;;5054597;28;20218;-67
2021/10/31 09:40:15;;;;;;;6.60;6.20;;;16.30;99.90;;;;;;5054628;28;20237;-67
2021/10/31 09:42:40;;;;;;;5.40;5.10;;;16.50;99.90;;;;;;5054693;28;20632;-67
2021/10/31 09:45:07;;;;;;;5.20;4.90;;;16.60;99.90;;;;;;5054893;28;20194;-66
2021/10/31 09:47:34;;;;;;;5.80;5.50;;;16.70;99.90;;;;;;5084792;22;20650;-66
2021/10/31 09:50:00;;;;;;;5.83;5.50;;;17.00;99.90;;;;;;5085322;28;20251;-66
2021/10/31 09:52:27;;;;;;;5.40;5.00;;;17.30;99.90;;;;;;5094782;28;20166;-66
2021/10/31 09:54:53;;;;;;;5.23;4.80;;;17.50;99.90;;;;;;5084380;28;20174;-66
2021/10/31 09:57:19;;;;;;;5.90;5.50;;;17.80;99.90;;;;;;5074150;28;20570;-66
2021/10/31 09:59:52;;;;;;;5.30;5.00;;;18.10;99.90;;;;;;5073738;28;20533;-66
2021/10/31 10:05:25;;;;;;;6.73;6.33;;;18.20;99.90;;;;;;5074282;28;20650;-66
2021/10/31 10:08:09;;;;;;;5.73;5.33;;;18.10;99.90;;;;;;5073787;28;20713;-66
2021/10/31 10:10:52;;;;;;;5.97;5.67;;;17.90;99.90;;;;;;5073748;28;20212;-66
2021/10/31 10:13:31;;;;;;;6.33;5.93;;;17.60;99.90;;;;;;5073905;28;20177;-65
2021/10/31 10:16:21;;;;;;;6.67;6.30;;;17.10;99.90;;;;;;5073996;28;20169;-66
2021/10/31 10:18:48;;;;;;;7.20;6.80;;;16.70;99.90;;;;;;5073349;28;20681;-66
2021/10/31 10:21:22;;;;;;;7.60;7.13;;;16.50;99.90;;;;;;5073685;28;20241;-66
2021/10/31 10:23:49;;;;;;;7.47;7.00;;;16.40;99.90;;;;;;5073378;28;20186;-66
2021/10/31 10:26:24;;;;;;;8.33;7.73;;;16.40;99.90;;;;;;5073753;28;20170;-66
2021/10/31 10:28:51;;;;;;;7.50;7.00;;;16.50;99.90;;;;;;5073477;28;20201;-66
2021/10/31 10:31:22;;;;;;;7.23;6.73;;;16.60;99.90;;;;;;5073252;28;20178;-66
2021/10/31 10:33:49;;;;;;;6.60;6.20;;;16.80;99.90;;;;;;5073450;28;20217;-66
2021/10/31 10:36:17;;;;;;;6.93;6.53;;;16.90;99.90;;;;;;5073507;28;20181;-66
2021/10/31 10:39:06;;;;;;;6.77;6.40;;;16.90;99.90;;;;;;5072693;28;20285;-66
2021/10/31 10:41:52;;;;;;;6.87;6.47;;;17.00;99.90;;;;;;5072686;28;20205;-66
2021/10/31 10:44:22;;;;;;;6.40;6.00;;;17.50;99.90;;;;;;5073713;28;20174;-66
2021/10/31 10:46:51;;;;;;;6.27;5.87;;;17.70;99.90;;;;;;5072444;28;20259;-66
2021/10/31 10:49:20;;;;;;;6.53;6.10;;;17.60;99.90;;;;;;5073101;28;20285;-66
2021/10/31 10:51:46;;;;;;;7.47;6.97;;;17.70;99.90;;;;;;5072799;28;20200;-66
2021/10/31 10:54:15;;;;;;;7.97;7.57;;;17.60;99.90;;;;;;5073780;28;20176;-66
2021/10/31 10:57:06;;;;;;;8.57;7.73;;;17.50;99.90;;;;;;5072834;28;20265;-66
2021/10/31 10:59:33;;;;;;;7.20;6.70;;;17.50;99.90;;;;;;5071403;28;20267;-65
2021/10/31 11:02:32;;;;;;;8.07;7.67;;;17.50;99.90;;;;;;5073378;28;20513;-66
2021/10/31 11:05:00;;;;;;;7.77;7.27;;;17.50;99.90;;;;;;5028323;28;20532;-66
2021/10/31 11:07:37;;;;;;;7.70;7.30;;;17.60;99.90;;;;;;5073529;28;20194;-66
2021/10/31 11:10:11;;;;;;;9.33;8.83;;;17.70;99.90;;;;;;5072478;28;20206;-66
2021/10/31 11:12:41;;;;;;;7.20;6.80;;;17.80;99.90;;;;;;5071448;28;20169;-65
2021/10/31 11:15:13;;;;;;;6.30;5.80;;;17.90;99.90;;;;;;5072801;28;20166;-66
2021/10/31 11:17:40;;;;;;;6.30;6.00;;;17.90;99.90;;;;;;5072554;28;20195;-65
2021/10/31 11:20:08;;;;;;;7.10;6.70;;;18.00;99.90;;;;;;5072232;28;20173;-64
2021/10/31 11:22:34;;;;;;;5.90;5.60;;;18.10;99.90;;;;;;5072433;28;20606;-65
2021/10/31 11:25:01;;;;;;;5.87;5.57;;;18.40;99.90;;;;;;5072118;28;20712;-65
2021/10/31 11:27:28;;;;;;;6.60;6.20;;;18.60;99.90;;;;;;5072491;28;20198;-64
2021/10/31 11:29:55;;;;;;;7.17;6.77;;;18.70;99.90;;;;;;5071813;28;20303;-65
2021/10/31 11:32:22;;;;;;;7.57;7.03;;;18.80;99.90;;;;;;5072629;28;20240;-65
2021/10/31 11:34:54;;;;;;;6.20;5.70;;;18.60;99.90;;;;;;5071799;28;20170;-65
2021/10/31 11:37:26;;;;;;;6.40;6.00;;;18.30;99.90;;;;;;5072461;28;20225;-66
2021/10/31 11:40:01;;;;;;;6.80;6.40;;;18.10;99.90;;;;;;5072152;28;20165;-66
2021/10/31 11:42:29;;;;;;;7.40;7.00;;;17.90;99.90;;;;;;5072193;28;20181;-66
2021/10/31 11:45:06;;;;;;;6.60;6.20;;;17.90;99.90;;;;;;5072165;28;20174;-65
2021/10/31 11:47:32;;;;;;;7.33;6.87;;;17.80;99.90;;;;;;5071839;28;20205;-66
2021/10/31 11:50:06;;;;;;;8.00;7.50;;;17.70;99.90;;;;;;5071733;28;20233;-66
2021/10/31 11:52:52;;;;;;;6.70;6.20;;;17.70;99.90;;;;;;5071224;28;20169;-66
2021/10/31 11:55:30;;;;;;;8.00;7.37;;;17.60;99.90;;;;;;5072208;28;20170;-65
2021/10/31 11:58:06;;;;;;;6.37;5.97;;;17.50;99.90;;;;;;5071698;28;20186;-66
2021/10/31 12:00:32;;;;;;;6.93;6.53;;;17.50;99.90;;;;;;5072094;28;20169;-66
2021/10/31 12:03:09;;;;;;;6.70;6.30;;;17.50;99.90;;;;;;5071358;28;20251;-67
2021/10/31 12:05:37;;;;;;;6.90;6.30;;;17.40;99.90;;;;;;5071840;28;20173;-65
2021/10/31 12:08:04;;;;;;;7.10;6.10;;;17.40;99.90;;;;;;5071694;28;20559;-65
2021/10/31 12:10:47;;;;;;;7.00;6.60;;;17.40;99.90;;;;;;5071284;28;20204;-66
2021/10/31 12:13:18;;;;;;;6.80;6.40;;;17.40;99.90;;;;;;5072002;28;20167;-65
2021/10/31 12:16:11;;;;;;;6.47;6.00;;;17.50;99.90;;;;;;5071559;28;20180;-66
2021/10/31 12:18:44;;;;;;;6.87;6.47;;;17.40;99.90;;;;;;5071351;28;20182;-65
2021/10/31 12:21:33;;;;;;;6.63;6.23;;;17.50;99.90;;;;;;5070410;28;20364;-66
2021/10/31 12:23:59;;;;;;;6.20;5.80;;;17.60;99.90;;;;;;5071382;28;20552;-66
2021/10/31 12:26:31;;;;;;;6.30;6.00;;;17.60;99.90;;;;;;5071464;28;20178;-65
2021/10/31 12:29:14;;;;;;;6.67;6.17;;;17.60;99.90;;;;;;5071283;28;20221;-67
2021/10/31 12:31:56;;;;;;;6.43;6.10;;;17.60;99.90;;;;;;5071062;28;20185;-65
2021/10/31 12:34:27;;;;;;;6.43;6.03;;;17.60;99.90;;;;;;5071720;28;20170;-65
2021/10/31 12:36:55;;;;;;;6.87;6.47;;;17.60;99.90;;;;;;5070869;28;20604;-66
2021/10/31 12:39:28;;;;;;;6.47;6.17;;;17.50;99.90;;;;;;5070991;28;20182;-66
2021/10/31 12:42:18;;;;;;;6.70;6.20;;;17.50;99.90;;;;;;5071138;28;20188;-65
2021/10/31 12:45:05;;;;;;;6.10;5.80;;;17.50;99.90;;;;;;5071035;28;20685;-66
2021/10/31 12:47:55;;;;;;;7.67;7.27;;;17.50;99.90;;;;;;5056853;28;20259;-66
2021/10/31 12:50:25;;;;;;;7.80;7.30;;;17.50;99.90;;;;;;5070812;28;20197;-65
2021/10/31 12:53:11;;;;;;;7.20;6.70;;;17.50;99.90;;;;;;5070940;28;20695;-66
2021/10/31 12:55:39;;;;;;;7.37;6.93;;;17.50;99.90;;;;;;5071148;28;20235;-65
2021/10/31 12:58:07;;;;;;;7.37;6.97;;;17.50;99.90;;;;;;5071244;28;20183;-66